createdAt,value
2018-06-27T00:00:03.605Z,19.10
2018-06-27T00:01:03.588Z,20.50
2018-06-27T00:02:03.569Z,19.30
2018-06-27T00:03:03.550Z,19.40
2018-06-27T00:04:03.536Z,18.70
2018-06-27T00:05:03.526Z,20.20
2018-06-27T00:06:03.499Z,19.60
2018-06-27T00:07:03.485Z,19.80
2018-06-27T00:08:03.467Z,19.20
2018-06-27T00:09:03.448Z,19.00
2018-06-27T00:10:03.433Z,19.20
2018-06-27T00:11:03.420Z,20.00
2018-06-27T00:12:03.403Z,19.40
2018-06-27T00:13:03.380Z,19.90
2018-06-27T00:14:03.364Z,18.60
2018-06-27T00:15:03.347Z,19.90
2018-06-27T00:16:03.341Z,20.10
2018-06-27T00:17:03.319Z,19.00
2018-06-27T00:18:03.295Z,18.70
2018-06-27T00:19:03.278Z,19.30
2018-06-27T00:20:03.262Z,18.70
2018-06-27T00:21:03.243Z,19.30
2018-06-27T00:22:03.227Z,19.60
2018-06-27T00:23:03.211Z,18.90
2018-06-27T00:24:03.194Z,19.60
2018-06-27T00:25:03.177Z,20.20
2018-06-27T00:26:03.158Z,19.00
2018-06-27T00:27:03.140Z,20.00
2018-06-27T00:28:03.122Z,20.10
2018-06-27T00:29:03.120Z,19.10
2018-06-27T00:30:03.089Z,20.50
2018-06-27T00:31:03.079Z,20.60
2018-06-27T00:32:03.159Z,20.70
2018-06-27T00:33:03.047Z,21.40
2018-06-27T00:34:03.022Z,19.90
2018-06-27T00:35:03.003Z,20.60
2018-06-27T00:36:02.995Z,21.50
2018-06-27T00:37:02.968Z,20.50
2018-06-27T00:38:02.954Z,19.50
2018-06-27T00:39:02.933Z,20.30
2018-06-27T00:40:02.927Z,20.30
2018-06-27T00:41:02.906Z,20.20
2018-06-27T00:42:02.883Z,20.10
2018-06-27T00:43:02.866Z,19.90
2018-06-27T00:44:02.848Z,19.30
2018-06-27T00:45:02.851Z,20.20
2018-06-27T00:46:02.814Z,20.40
2018-06-27T00:47:02.795Z,20.00
2018-06-27T00:48:02.778Z,20.80
2018-06-27T00:49:02.759Z,20.90
2018-06-27T00:50:02.751Z,20.80
2018-06-27T00:51:02.729Z,20.60
2018-06-27T00:52:02.708Z,20.50
2018-06-27T00:53:02.690Z,20.80
2018-06-27T00:54:02.680Z,21.10
2018-06-27T00:55:02.660Z,20.70
2018-06-27T00:56:02.639Z,20.00
2018-06-27T00:57:02.621Z,20.60
2018-06-27T00:58:02.619Z,20.50
2018-06-27T00:59:02.587Z,21.00
2018-06-27T01:00:02.570Z,21.60
2018-06-27T01:01:02.560Z,21.40
2018-06-27T01:02:02.582Z,21.00
2018-06-27T01:03:02.519Z,20.80
2018-06-27T01:04:02.499Z,20.10
2018-06-27T01:05:02.481Z,21.50
2018-06-27T01:06:02.467Z,21.40
2018-06-27T01:07:02.447Z,21.60
2018-06-27T01:08:02.434Z,20.60
2018-06-27T01:09:02.421Z,20.20
2018-06-27T01:10:02.397Z,21.30
2018-06-27T01:11:02.381Z,20.50
2018-06-27T01:12:02.363Z,20.40
2018-06-27T01:13:02.369Z,20.30
2018-06-27T01:14:02.327Z,21.40
2018-06-27T01:15:02.310Z,21.30
2018-06-27T01:16:02.291Z,20.00
2018-06-27T01:17:02.281Z,21.00
2018-06-27T01:18:02.257Z,20.50
2018-06-27T01:19:02.241Z,20.80
2018-06-27T01:20:02.230Z,20.80
2018-06-27T01:21:02.204Z,20.80
2018-06-27T01:22:02.194Z,21.40
2018-06-27T01:23:02.176Z,20.90
2018-06-27T01:24:02.151Z,21.00
2018-06-27T01:25:02.142Z,21.00
2018-06-27T01:26:02.123Z,20.40
2018-06-27T01:27:02.109Z,21.50
2018-06-27T01:28:02.083Z,21.10
2018-06-27T01:29:02.063Z,21.00
2018-06-27T01:30:02.047Z,21.60
2018-06-27T01:31:02.028Z,20.70
2018-06-27T01:32:02.011Z,20.70
2018-06-27T01:33:01.996Z,20.30
2018-06-27T01:34:01.976Z,19.80
2018-06-27T01:35:01.960Z,19.50
2018-06-27T01:36:01.942Z,20.90
2018-06-27T01:37:01.924Z,20.10
2018-06-27T01:38:01.906Z,21.10
2018-06-27T01:39:01.889Z,19.90
2018-06-27T01:40:01.872Z,20.90
2018-06-27T01:41:01.859Z,20.00
2018-06-27T01:42:01.839Z,20.00
2018-06-27T01:43:01.820Z,19.80
2018-06-27T01:44:01.800Z,20.40
2018-06-27T01:45:01.785Z,20.00
2018-06-27T01:46:01.765Z,20.20
2018-06-27T01:47:01.748Z,19.60
2018-06-27T01:48:01.732Z,20.30
2018-06-27T01:49:01.733Z,19.50
2018-06-27T01:50:01.697Z,20.20
2018-06-27T01:51:01.677Z,19.80
2018-06-27T01:52:01.661Z,19.60
2018-06-27T01:53:01.644Z,20.60
2018-06-27T01:54:01.626Z,20.20
2018-06-27T01:55:01.608Z,18.70
2018-06-27T01:56:01.591Z,20.00
2018-06-27T01:57:01.571Z,21.00
2018-06-27T01:58:01.554Z,19.70
2018-06-27T01:59:01.535Z,18.90
2018-06-27T02:00:01.520Z,19.70
2018-06-27T02:01:01.503Z,19.60
2018-06-27T02:02:01.491Z,19.80
2018-06-27T02:03:01.465Z,20.30
2018-06-27T02:04:01.449Z,20.50
2018-06-27T02:05:01.432Z,21.10
2018-06-27T02:06:01.412Z,20.80
2018-06-27T02:07:01.395Z,20.10
2018-06-27T02:08:01.378Z,20.40
2018-06-27T02:09:01.362Z,21.40
2018-06-27T02:10:01.351Z,20.30
2018-06-27T02:11:01.326Z,20.80
2018-06-27T02:12:01.308Z,20.60
2018-06-27T02:13:01.288Z,19.30
2018-06-27T02:14:01.271Z,21.10
2018-06-27T02:15:01.255Z,20.70
2018-06-27T02:16:01.238Z,20.20
2018-06-27T02:17:01.218Z,20.10
2018-06-27T02:18:01.200Z,20.70
2018-06-27T02:19:01.184Z,20.70
2018-06-27T02:20:01.166Z,19.80
2018-06-27T02:21:01.150Z,20.00
2018-06-27T02:22:01.130Z,19.70
2018-06-27T02:23:01.122Z,20.20
2018-06-27T02:24:01.095Z,20.80
2018-06-27T02:25:01.077Z,20.40
2018-06-27T02:26:01.060Z,21.10
2018-06-27T02:27:01.041Z,20.30
2018-06-27T02:28:01.025Z,20.10
2018-06-27T02:29:01.006Z,20.50
2018-06-27T02:30:00.988Z,20.70
2018-06-27T02:31:00.971Z,20.90
2018-06-27T02:32:00.958Z,20.40
2018-06-27T02:33:00.936Z,20.80
2018-06-27T02:34:00.916Z,20.60
2018-06-27T02:35:00.903Z,20.70
2018-06-27T02:36:00.883Z,21.00
2018-06-27T02:37:00.863Z,21.30
2018-06-27T02:38:00.847Z,21.70
2018-06-27T02:39:00.830Z,21.20
2018-06-27T02:40:00.821Z,20.40
2018-06-27T02:41:00.794Z,22.10
2018-06-27T02:42:00.775Z,20.20
2018-06-27T02:43:00.760Z,20.80
2018-06-27T02:44:00.740Z,21.00
2018-06-27T02:45:00.720Z,21.40
2018-06-27T02:46:00.704Z,21.50
2018-06-27T02:47:00.692Z,19.90
2018-06-27T02:48:00.670Z,21.10
2018-06-27T02:49:00.651Z,21.40
2018-06-27T02:50:00.636Z,20.70
2018-06-27T02:51:00.623Z,20.90
2018-06-27T02:52:00.595Z,20.50
2018-06-27T02:53:00.579Z,22.10
2018-06-27T02:54:00.561Z,20.60
2018-06-27T02:55:00.544Z,21.90
2018-06-27T02:56:00.526Z,19.30
2018-06-27T02:57:00.505Z,21.40
2018-06-27T02:58:00.503Z,20.80
2018-06-27T02:59:00.480Z,21.00
2018-06-27T03:00:00.454Z,20.30
2018-06-27T03:01:00.441Z,20.50
2018-06-27T03:02:00.421Z,20.40
2018-06-27T03:03:00.404Z,20.90
2018-06-27T03:04:00.381Z,21.00
2018-06-27T03:05:00.367Z,20.50
2018-06-27T03:06:00.346Z,21.30
2018-06-27T03:07:00.328Z,20.80
2018-06-27T03:08:00.318Z,19.90
2018-06-27T03:09:00.393Z,20.90
2018-06-27T03:10:00.276Z,20.90
2018-06-27T03:11:00.258Z,22.00
2018-06-27T03:12:00.289Z,21.00
2018-06-27T03:13:00.220Z,20.40
2018-06-27T03:14:00.203Z,20.70
2018-06-27T03:15:00.185Z,21.20
2018-06-27T03:16:00.185Z,21.60
2018-06-27T03:17:00.155Z,20.90
2018-06-27T03:18:00.137Z,21.10
2018-06-27T03:19:00.114Z,21.30
2018-06-27T03:20:00.097Z,21.70
2018-06-27T03:21:00.078Z,21.80
2018-06-27T03:22:00.096Z,21.90
2018-06-27T03:23:00.043Z,23.10
2018-06-27T03:24:00.025Z,21.40
2018-06-27T03:25:00.011Z,21.60
2018-06-27T03:25:59.988Z,22.20
2018-06-27T03:26:59.971Z,20.80
2018-06-27T03:27:59.956Z,22.30
2018-06-27T03:28:59.936Z,22.00
2018-06-27T03:29:59.917Z,23.00
2018-06-27T03:30:59.899Z,23.70
2018-06-27T03:31:59.881Z,21.90
2018-06-27T03:32:59.869Z,23.30
2018-06-27T03:33:59.844Z,23.40
2018-06-27T03:34:59.835Z,23.40
2018-06-27T03:35:59.826Z,22.60
2018-06-27T03:36:59.790Z,22.40
2018-06-27T03:37:59.780Z,22.50
2018-06-27T03:38:59.773Z,22.80
2018-06-27T03:39:59.737Z,23.50
2018-06-27T03:40:59.720Z,22.70
2018-06-27T03:42:00.432Z,24.00
2018-06-27T03:42:59.703Z,22.70
2018-06-27T03:43:59.992Z,23.40
2018-06-27T03:44:59.664Z,22.30
2018-06-27T03:45:59.628Z,22.10
2018-06-27T03:46:59.649Z,22.40
2018-06-27T03:47:59.622Z,23.30
2018-06-27T03:48:59.574Z,22.90
2018-06-27T03:49:59.557Z,23.00
2018-06-27T03:50:59.539Z,23.20
2018-06-27T03:51:59.522Z,23.50
2018-06-27T03:52:59.503Z,23.80
2018-06-27T03:53:59.487Z,22.60
2018-06-27T03:54:59.470Z,22.30
2018-06-27T03:55:59.452Z,22.90
2018-06-27T03:56:59.431Z,23.40
2018-06-27T03:57:59.414Z,22.60
2018-06-27T03:58:59.409Z,23.70
2018-06-27T03:59:59.382Z,23.10
2018-06-27T04:00:59.563Z,23.40
2018-06-27T04:01:59.346Z,23.30
2018-06-27T04:02:59.326Z,24.20
2018-06-27T04:03:59.308Z,23.40
2018-06-27T04:04:59.295Z,24.30
2018-06-27T04:05:59.281Z,23.00
2018-06-27T04:06:59.261Z,23.60
2018-06-27T04:07:59.244Z,22.90
2018-06-27T04:08:59.219Z,22.30
2018-06-27T04:09:59.217Z,22.90
2018-06-27T04:10:59.185Z,22.50
2018-06-27T04:11:59.167Z,23.50
2018-06-27T04:12:59.267Z,23.30
2018-06-27T04:13:59.130Z,22.90
2018-06-27T04:14:59.119Z,21.60
2018-06-27T04:15:59.105Z,23.30
2018-06-27T04:16:59.077Z,22.80
2018-06-27T04:17:59.071Z,22.50
2018-06-27T04:18:59.048Z,23.40
2018-06-27T04:19:59.025Z,22.60
2018-06-27T04:20:59.007Z,23.00
2018-06-27T04:21:58.995Z,23.90
2018-06-27T04:22:58.972Z,24.00
2018-06-27T04:23:58.955Z,23.60
2018-06-27T04:24:58.936Z,22.60
2018-06-27T04:25:58.919Z,23.40
2018-06-27T04:26:58.902Z,23.70
2018-06-27T04:27:59.203Z,24.40
2018-06-27T04:28:58.878Z,24.10
2018-06-27T04:29:58.856Z,23.30
2018-06-27T04:30:58.851Z,24.00
2018-06-27T04:31:58.816Z,24.20
2018-06-27T04:32:58.796Z,24.00
2018-06-27T04:33:58.781Z,23.00
2018-06-27T04:34:58.763Z,24.00
2018-06-27T04:35:58.749Z,23.90
2018-06-27T04:36:58.729Z,22.40
2018-06-27T04:37:58.709Z,23.90
2018-06-27T04:38:58.693Z,23.30
2018-06-27T04:39:58.677Z,23.70
2018-06-27T04:40:58.658Z,23.00
2018-06-27T04:41:58.650Z,22.50
2018-06-27T04:42:58.626Z,24.10
2018-06-27T04:43:58.607Z,23.90
2018-06-27T04:44:58.591Z,22.70
2018-06-27T04:45:58.574Z,23.30
2018-06-27T04:46:58.558Z,22.90
2018-06-27T04:47:58.564Z,22.70
2018-06-27T04:48:58.521Z,23.40
2018-06-27T04:49:58.831Z,23.50
2018-06-27T04:50:58.490Z,23.60
2018-06-27T04:51:58.472Z,23.40
2018-06-27T04:52:58.454Z,23.50
2018-06-27T04:53:58.440Z,22.60
2018-06-27T04:54:58.440Z,23.30
2018-06-27T04:55:58.404Z,23.20
2018-06-27T04:56:58.389Z,23.80
2018-06-27T04:57:58.369Z,23.20
2018-06-27T04:58:58.350Z,23.70
2018-06-27T04:59:58.343Z,23.60
2018-06-27T05:00:58.317Z,23.90
2018-06-27T05:01:58.300Z,22.80
2018-06-27T05:02:58.283Z,23.90
2018-06-27T05:03:58.275Z,23.20
2018-06-27T05:04:58.249Z,23.60
2018-06-27T05:05:58.232Z,24.10
2018-06-27T05:06:58.216Z,24.40
2018-06-27T05:07:58.204Z,23.20
2018-06-27T05:08:58.192Z,24.00
2018-06-27T05:09:58.175Z,22.60
2018-06-27T05:10:58.148Z,23.30
2018-06-27T05:11:58.133Z,24.30
2018-06-27T05:12:58.115Z,24.20
2018-06-27T05:13:58.098Z,24.40
2018-06-27T05:14:58.090Z,23.70
2018-06-27T05:15:58.108Z,24.30
2018-06-27T05:16:58.052Z,23.40
2018-06-27T05:17:58.033Z,23.80
2018-06-27T05:18:58.024Z,23.20
2018-06-27T05:19:58.001Z,23.00
2018-06-27T05:20:57.980Z,23.40
2018-06-27T05:21:57.966Z,22.50
2018-06-27T05:22:57.949Z,23.90
2018-06-27T05:23:57.931Z,23.40
2018-06-27T05:24:57.914Z,22.80
2018-06-27T05:25:57.899Z,24.20
2018-06-27T05:26:57.890Z,24.70
2018-06-27T05:27:57.869Z,23.20
2018-06-27T05:28:57.852Z,22.70
2018-06-27T05:29:57.833Z,24.10
2018-06-27T05:30:57.825Z,24.10
2018-06-27T05:31:57.801Z,24.00
2018-06-27T05:32:57.784Z,22.60
2018-06-27T05:33:57.840Z,22.70
2018-06-27T05:34:57.754Z,23.80
2018-06-27T05:35:57.736Z,23.30
2018-06-27T05:36:57.719Z,24.00
2018-06-27T05:37:57.704Z,23.30
2018-06-27T05:38:57.685Z,23.40
2018-06-27T05:39:57.671Z,24.10
2018-06-27T05:40:57.663Z,23.10
2018-06-27T05:41:57.644Z,23.50
2018-06-27T05:42:57.622Z,23.80
2018-06-27T05:43:57.614Z,23.00
2018-06-27T05:44:57.595Z,22.20
2018-06-27T05:45:57.576Z,22.30
2018-06-27T05:46:57.605Z,20.70
2018-06-27T05:47:57.552Z,19.30
2018-06-27T05:48:57.539Z,20.90
2018-06-27T05:49:57.521Z,20.00
2018-06-27T05:50:57.504Z,20.00
2018-06-27T05:51:57.491Z,19.20
2018-06-27T05:52:57.470Z,19.30
2018-06-27T05:53:57.456Z,17.80
2018-06-27T05:54:57.450Z,18.70
2018-06-27T05:55:57.429Z,18.20
2018-06-27T05:56:57.415Z,18.00
2018-06-27T05:57:57.401Z,18.70
2018-06-27T05:58:57.388Z,18.30
2018-06-27T05:59:57.381Z,16.80
2018-06-27T06:00:57.364Z,16.30
2018-06-27T06:01:57.352Z,15.50
2018-06-27T06:02:57.342Z,16.60
2018-06-27T06:03:57.329Z,16.10
2018-06-27T06:04:57.319Z,16.30
2018-06-27T06:05:57.314Z,16.50
2018-06-27T06:06:57.296Z,16.50
2018-06-27T06:07:57.304Z,14.90
2018-06-27T06:08:57.277Z,15.70
2018-06-27T06:09:57.275Z,16.40
2018-06-27T06:10:57.291Z,17.30
2018-06-27T06:11:57.250Z,16.50
2018-06-27T06:12:57.240Z,16.50
2018-06-27T06:13:57.235Z,16.70
2018-06-27T06:14:57.221Z,16.40
2018-06-27T06:15:57.213Z,15.90
2018-06-27T06:16:57.210Z,16.70
2018-06-27T06:17:57.195Z,15.00
2018-06-27T06:18:57.189Z,15.20
2018-06-27T06:19:57.180Z,15.20
2018-06-27T06:20:57.177Z,15.00
2018-06-27T06:21:57.165Z,15.90
2018-06-27T06:22:57.166Z,16.20
2018-06-27T06:23:57.159Z,15.30
2018-06-27T06:24:57.141Z,15.20
2018-06-27T06:25:57.147Z,15.10
2018-06-27T06:26:57.129Z,14.50
2018-06-27T06:27:57.121Z,16.00
2018-06-27T06:28:57.115Z,15.30
2018-06-27T06:29:57.108Z,14.40
2018-06-27T06:30:57.111Z,15.50
2018-06-27T06:31:57.096Z,15.10
2018-06-27T06:32:57.088Z,15.20
2018-06-27T06:33:57.098Z,15.00
2018-06-27T06:34:57.080Z,15.40
2018-06-27T06:35:57.072Z,15.60
2018-06-27T06:36:57.080Z,14.80
2018-06-27T06:37:57.057Z,15.20
2018-06-27T06:38:57.061Z,15.10
2018-06-27T06:39:57.048Z,14.50
2018-06-27T06:40:57.053Z,15.30
2018-06-27T06:41:57.043Z,14.30
2018-06-27T06:42:57.030Z,14.50
2018-06-27T06:43:57.031Z,14.10
2018-06-27T06:44:57.021Z,14.70
2018-06-27T06:45:57.022Z,15.10
2018-06-27T06:46:57.009Z,14.40
2018-06-27T06:47:57.012Z,14.50
2018-06-27T06:48:57.010Z,14.90
2018-06-27T06:49:56.995Z,14.80
2018-06-27T06:50:56.991Z,14.10
2018-06-27T06:51:57.005Z,13.90
2018-06-27T06:52:56.981Z,13.90
2018-06-27T06:53:56.977Z,13.90
2018-06-27T06:54:56.973Z,14.40
2018-06-27T06:55:56.978Z,15.30
2018-06-27T06:56:56.966Z,14.30
2018-06-27T06:57:56.962Z,14.80
2018-06-27T06:58:56.965Z,14.70
2018-06-27T06:59:56.954Z,14.10
2018-06-27T07:00:56.957Z,15.20
2018-06-27T07:01:56.951Z,14.80
2018-06-27T07:02:56.943Z,15.10
2018-06-27T07:03:56.939Z,15.80
2018-06-27T07:04:56.960Z,15.00
2018-06-27T07:05:57.084Z,14.90
2018-06-27T07:06:56.931Z,14.10
2018-06-27T07:07:56.929Z,14.80
2018-06-27T07:08:56.925Z,14.20
2018-06-27T07:09:56.926Z,14.80
2018-06-27T07:10:56.930Z,14.90
2018-06-27T07:11:56.917Z,13.90
2018-06-27T07:12:56.914Z,13.90
2018-06-27T07:13:56.913Z,13.80
2018-06-27T07:14:56.912Z,13.90
2018-06-27T07:15:56.911Z,14.10
2018-06-27T07:16:56.903Z,13.60
2018-06-27T07:17:56.901Z,13.20
2018-06-27T07:18:56.900Z,14.20
2018-06-27T07:19:56.906Z,12.70
2018-06-27T07:20:56.894Z,13.40
2018-06-27T07:21:56.892Z,13.90
2018-06-27T07:22:56.896Z,14.20
2018-06-27T07:23:56.891Z,14.70
2018-06-27T07:24:56.892Z,15.10
2018-06-27T07:25:56.885Z,15.20
2018-06-27T07:26:56.892Z,14.70
2018-06-27T07:27:56.883Z,14.80
2018-06-27T07:28:56.884Z,15.60
2018-06-27T07:29:56.889Z,14.00
2018-06-27T07:30:56.878Z,14.40
2018-06-27T07:31:56.874Z,14.50
2018-06-27T07:32:56.872Z,13.90
2018-06-27T07:33:56.871Z,13.20
2018-06-27T07:34:56.870Z,13.80
2018-06-27T07:35:56.930Z,14.10
2018-06-27T07:36:56.874Z,13.20
2018-06-27T07:37:56.868Z,14.00
2018-06-27T07:38:56.874Z,14.00
2018-06-27T07:39:56.867Z,13.60
2018-06-27T07:40:56.864Z,14.70
2018-06-27T07:41:56.862Z,13.40
2018-06-27T07:42:56.865Z,14.40
2018-06-27T07:43:56.862Z,13.80
2018-06-27T07:44:56.860Z,14.50
2018-06-27T07:45:56.862Z,14.60
2018-06-27T07:46:56.860Z,14.70
2018-06-27T07:47:56.862Z,14.20
2018-06-27T07:48:56.852Z,14.80
2018-06-27T07:49:56.894Z,14.60
2018-06-27T07:50:56.846Z,13.60
2018-06-27T07:51:56.845Z,14.30
2018-06-27T07:52:56.844Z,14.70
2018-06-27T07:53:56.838Z,15.10
2018-06-27T07:54:56.833Z,14.40
2018-06-27T07:55:56.834Z,15.10
2018-06-27T07:56:56.831Z,15.20
2018-06-27T07:57:56.818Z,14.60
2018-06-27T07:58:56.819Z,14.30
2018-06-27T07:59:56.809Z,14.30
2018-06-27T08:00:56.805Z,14.00
2018-06-27T08:01:56.806Z,14.60
2018-06-27T08:02:56.792Z,13.50
2018-06-27T08:03:56.788Z,14.30
2018-06-27T08:04:56.790Z,14.40
2018-06-27T08:05:56.890Z,14.10
2018-06-27T08:06:56.768Z,13.30
2018-06-27T08:07:56.776Z,13.80
2018-06-27T08:08:56.757Z,13.90
2018-06-27T08:09:56.752Z,13.90
2018-06-27T08:10:56.748Z,13.70
2018-06-27T08:11:56.752Z,14.10
2018-06-27T08:12:56.745Z,14.50
2018-06-27T08:13:56.734Z,14.20
2018-06-27T08:14:56.724Z,14.00
2018-06-27T08:15:56.723Z,13.60
2018-06-27T08:16:56.718Z,14.60
2018-06-27T08:17:56.889Z,14.30
2018-06-27T08:18:56.709Z,14.00
2018-06-27T08:19:56.691Z,14.70
2018-06-27T08:20:56.685Z,15.10
2018-06-27T08:21:56.678Z,14.90
2018-06-27T08:22:56.672Z,14.20
2018-06-27T08:23:56.665Z,14.50
2018-06-27T08:24:56.661Z,15.00
2018-06-27T08:25:56.765Z,14.10
2018-06-27T08:26:56.755Z,14.60
2018-06-27T08:27:56.636Z,14.80
2018-06-27T08:28:56.629Z,15.00
2018-06-27T08:29:56.629Z,14.50
2018-06-27T08:30:56.616Z,14.10
2018-06-27T08:31:56.609Z,14.80
2018-06-27T08:32:56.601Z,13.60
2018-06-27T08:33:56.590Z,15.30
2018-06-27T08:34:56.582Z,14.60
2018-06-27T08:35:56.589Z,13.80
2018-06-27T08:36:56.578Z,14.30
2018-06-27T08:37:59.181Z,14.60
2018-06-27T08:38:56.757Z,13.60
2018-06-27T08:39:56.548Z,12.60
2018-06-27T08:40:56.530Z,13.10
2018-06-27T08:41:57.737Z,13.70
2018-06-27T08:42:59.945Z,13.00
2018-06-27T08:43:59.530Z,13.10
2018-06-27T08:45:00.131Z,13.40
2018-06-27T08:45:56.501Z,13.10
2018-06-27T08:46:56.480Z,13.00
2018-06-27T08:47:56.478Z,13.00
2018-06-27T08:48:56.456Z,12.20
2018-06-27T08:49:56.513Z,14.30
2018-06-27T08:50:56.438Z,12.70
2018-06-27T08:51:56.428Z,12.20
2018-06-27T08:52:56.418Z,15.50
2018-06-27T08:53:56.412Z,12.10
2018-06-27T08:54:56.407Z,11.50
2018-06-27T08:55:56.391Z,12.80
2018-06-27T08:56:56.385Z,12.70
2018-06-27T08:57:56.374Z,12.40
2018-06-27T08:58:56.372Z,12.20
2018-06-27T08:59:56.354Z,13.10
2018-06-27T09:00:56.346Z,12.20
2018-06-27T09:01:56.346Z,12.60
2018-06-27T09:02:56.335Z,11.60
2018-06-27T09:03:56.319Z,12.10
2018-06-27T09:04:56.309Z,12.60
2018-06-27T09:05:56.305Z,11.90
2018-06-27T09:06:56.292Z,12.20
2018-06-27T09:07:56.282Z,12.60
2018-06-27T09:08:56.272Z,11.90
2018-06-27T09:09:58.886Z,11.20
2018-06-27T09:10:56.278Z,12.50
2018-06-27T09:11:56.249Z,11.90
2018-06-27T09:12:56.244Z,11.50
2018-06-27T09:13:56.234Z,11.60
2018-06-27T09:14:56.234Z,12.20
2018-06-27T09:15:56.219Z,11.40
2018-06-27T09:16:56.229Z,11.90
2018-06-27T09:17:56.207Z,11.90
2018-06-27T09:18:56.213Z,11.70
2018-06-27T09:19:56.197Z,10.50
2018-06-27T09:20:56.193Z,10.10
2018-06-27T09:21:56.186Z,10.60
2018-06-27T09:22:56.186Z,9.60
2018-06-27T09:23:56.186Z,10.00
2018-06-27T09:24:56.183Z,9.70
2018-06-27T09:25:56.173Z,10.40
2018-06-27T09:26:56.180Z,10.70
2018-06-27T09:27:56.172Z,10.20
2018-06-27T09:28:56.173Z,10.90
2018-06-27T09:29:56.163Z,10.90
2018-06-27T09:30:56.160Z,11.00
2018-06-27T09:31:56.155Z,10.40
2018-06-27T09:32:56.255Z,10.60
2018-06-27T09:33:56.160Z,9.90
2018-06-27T09:34:56.151Z,10.50
2018-06-27T09:35:56.193Z,9.70
2018-06-27T09:36:56.148Z,9.90
2018-06-27T09:37:56.140Z,9.60
2018-06-27T09:38:56.135Z,10.00
2018-06-27T09:39:56.144Z,9.00
2018-06-27T09:40:56.134Z,9.30
2018-06-27T09:41:56.203Z,10.10
2018-06-27T09:42:56.132Z,8.50
2018-06-27T09:43:56.134Z,9.60
2018-06-27T09:44:56.135Z,9.60
2018-06-27T09:45:56.224Z,9.50
2018-06-27T09:46:56.125Z,9.60
2018-06-27T09:47:56.129Z,9.80
2018-06-27T09:48:56.127Z,9.40
2018-06-27T09:49:56.129Z,9.60
2018-06-27T09:50:56.119Z,9.60
2018-06-27T09:51:56.118Z,9.80
2018-06-27T09:52:56.115Z,8.50
2018-06-27T09:53:56.122Z,8.80
2018-06-27T09:54:56.112Z,8.60
2018-06-27T09:55:56.121Z,9.20
2018-06-27T09:56:56.129Z,8.90
2018-06-27T09:57:56.109Z,9.00
2018-06-27T09:58:56.114Z,10.20
2018-06-27T09:59:56.111Z,8.80
2018-06-27T10:00:56.100Z,9.40
2018-06-27T10:01:56.109Z,9.10
2018-06-27T10:02:56.109Z,8.80
2018-06-27T10:03:56.105Z,8.70
2018-06-27T10:04:56.093Z,9.90
2018-06-27T10:05:56.094Z,11.60
2018-06-27T10:06:56.090Z,8.90
2018-06-27T10:07:56.097Z,7.90
2018-06-27T10:08:56.086Z,7.70
2018-06-27T10:09:56.092Z,7.20
2018-06-27T10:10:56.085Z,7.30
2018-06-27T10:11:56.080Z,7.80
2018-06-27T10:12:56.079Z,8.20
2018-06-27T10:13:56.078Z,6.80
2018-06-27T10:14:56.083Z,6.80
2018-06-27T10:15:56.078Z,6.30
2018-06-27T10:16:56.109Z,6.20
2018-06-27T10:17:56.073Z,6.80
2018-06-27T10:18:56.071Z,6.70
2018-06-27T10:19:56.071Z,6.90
2018-06-27T10:20:56.070Z,7.30
2018-06-27T10:21:56.082Z,6.90
2018-06-27T10:22:56.074Z,6.60
2018-06-27T10:23:56.077Z,6.10
2018-06-27T10:24:56.079Z,6.70
2018-06-27T10:25:56.079Z,7.10
2018-06-27T10:26:56.085Z,6.90
2018-06-27T10:27:56.085Z,6.50
2018-06-27T10:28:56.086Z,7.10
2018-06-27T10:29:56.090Z,6.40
2018-06-27T10:30:56.094Z,7.40
2018-06-27T10:31:56.099Z,6.90
2018-06-27T10:32:56.109Z,6.80
2018-06-27T10:33:56.106Z,6.10
2018-06-27T10:34:56.222Z,5.50
2018-06-27T10:35:56.114Z,5.90
2018-06-27T10:36:56.116Z,6.00
2018-06-27T10:37:56.148Z,6.30
2018-06-27T10:38:56.144Z,6.00
2018-06-27T10:39:56.135Z,6.20
2018-06-27T10:40:56.135Z,6.00
2018-06-27T10:41:56.145Z,7.10
2018-06-27T10:42:56.149Z,6.40
2018-06-27T10:43:56.187Z,7.00
2018-06-27T10:44:56.154Z,6.70
2018-06-27T10:45:56.194Z,5.70
2018-06-27T10:46:56.167Z,5.20
2018-06-27T10:47:56.170Z,5.00
2018-06-27T10:48:56.173Z,5.10
2018-06-27T10:49:56.180Z,5.20
2018-06-27T10:50:56.188Z,5.10
2018-06-27T10:51:56.193Z,4.70
2018-06-27T10:52:56.194Z,5.60
2018-06-27T10:53:56.202Z,5.20
2018-06-27T10:54:56.205Z,5.50
2018-06-27T10:55:56.212Z,5.80
2018-06-27T10:56:56.228Z,5.30
2018-06-27T10:57:56.223Z,5.40
2018-06-27T10:58:56.228Z,4.80
2018-06-27T10:59:56.234Z,4.80
2018-06-27T11:00:56.237Z,4.70
2018-06-27T11:01:56.255Z,4.30
2018-06-27T11:02:56.258Z,4.00
2018-06-27T11:03:56.265Z,4.10
2018-06-27T11:04:56.263Z,4.30
2018-06-27T11:05:56.268Z,4.60
2018-06-27T11:06:56.273Z,4.60
2018-06-27T11:07:56.277Z,20.40
2018-06-27T11:08:56.282Z,5.30
2018-06-27T11:09:56.287Z,4.10
2018-06-27T11:10:56.292Z,5.20
2018-06-27T11:11:56.295Z,5.10
2018-06-27T11:12:56.299Z,4.40
2018-06-27T11:13:56.304Z,3.90
2018-06-27T11:14:56.308Z,3.10
2018-06-27T11:15:56.314Z,3.50
2018-06-27T11:16:56.316Z,3.20
2018-06-27T11:17:56.318Z,3.40
2018-06-27T11:18:56.326Z,3.00
2018-06-27T11:19:56.324Z,3.20
2018-06-27T11:20:56.324Z,3.20
2018-06-27T11:21:56.333Z,2.90
2018-06-27T11:22:56.331Z,3.20
2018-06-27T11:23:56.337Z,2.70
2018-06-27T11:24:56.341Z,3.70
2018-06-27T11:25:56.343Z,3.40
2018-06-27T11:26:56.407Z,3.30
2018-06-27T11:27:56.355Z,3.20
2018-06-27T11:28:56.346Z,3.90
2018-06-27T11:29:56.356Z,3.30
2018-06-27T11:30:56.353Z,3.60
2018-06-27T11:31:56.371Z,3.30
2018-06-27T11:32:56.355Z,3.00
2018-06-27T11:33:56.356Z,3.40
2018-06-27T11:34:56.369Z,3.00
2018-06-27T11:35:56.363Z,2.90
2018-06-27T11:36:56.371Z,3.00
2018-06-27T11:37:56.365Z,3.10
2018-06-27T11:38:56.367Z,2.90
2018-06-27T11:39:56.370Z,3.20
2018-06-27T11:40:56.369Z,3.50
2018-06-27T11:41:56.387Z,3.00
2018-06-27T11:42:56.374Z,2.90
2018-06-27T11:43:56.379Z,2.70
2018-06-27T11:44:56.376Z,3.20
2018-06-27T11:45:56.387Z,3.00
2018-06-27T11:46:56.380Z,2.90
2018-06-27T11:47:56.382Z,3.40
2018-06-27T11:48:56.380Z,3.40
2018-06-27T11:49:56.388Z,3.00
2018-06-27T11:50:56.382Z,3.20
2018-06-27T11:51:56.387Z,2.90
2018-06-27T11:52:56.380Z,3.40
2018-06-27T11:53:56.382Z,3.30
2018-06-27T11:54:56.380Z,3.00
2018-06-27T11:55:56.377Z,3.10
2018-06-27T11:56:56.373Z,3.00
2018-06-27T11:57:56.375Z,3.20
2018-06-27T11:58:56.371Z,3.20
2018-06-27T11:59:56.366Z,3.40
2018-06-27T12:00:56.363Z,3.80
2018-06-27T12:01:56.374Z,3.20
2018-06-27T12:02:56.366Z,3.10
2018-06-27T12:03:56.353Z,3.10
2018-06-27T12:04:56.350Z,3.10
2018-06-27T12:05:56.355Z,3.10
2018-06-27T12:06:56.340Z,2.70
2018-06-27T12:07:56.336Z,3.00
2018-06-27T12:08:56.346Z,3.40
2018-06-27T12:09:56.325Z,2.90
2018-06-27T12:10:56.327Z,2.70
2018-06-27T12:11:56.318Z,2.90
2018-06-27T12:12:56.307Z,3.30
2018-06-27T12:13:56.300Z,2.90
2018-06-27T12:14:56.296Z,2.90
2018-06-27T12:15:56.289Z,3.30
2018-06-27T12:16:56.312Z,3.00
2018-06-27T12:17:56.375Z,2.80
2018-06-27T12:18:56.267Z,3.00
2018-06-27T12:19:56.260Z,2.90
2018-06-27T12:20:56.263Z,3.80
2018-06-27T12:21:56.265Z,3.00
2018-06-27T12:22:56.241Z,3.20
2018-06-27T12:23:56.242Z,3.00
2018-06-27T12:24:56.230Z,2.90
2018-06-27T12:25:56.228Z,2.80
2018-06-27T12:26:56.214Z,3.10
2018-06-27T12:27:56.219Z,3.20
2018-06-27T12:28:56.210Z,3.10
2018-06-27T12:30:40.433Z,3.40
2018-06-27T12:31:40.409Z,3.20
2018-06-27T12:32:40.410Z,3.20
2018-06-27T12:33:40.394Z,3.20
2018-06-27T12:34:40.387Z,3.70
2018-06-27T12:35:40.381Z,3.20
2018-06-27T12:36:40.369Z,3.30
2018-06-27T12:37:40.364Z,3.20
2018-06-27T12:38:40.420Z,3.40
2018-06-27T12:39:40.347Z,3.10
2018-06-27T12:40:40.343Z,3.30
2018-06-27T12:41:40.337Z,3.10
2018-06-27T12:42:40.322Z,3.40
2018-06-27T12:43:40.312Z,3.60
2018-06-27T12:44:40.306Z,3.10
2018-06-27T12:45:40.299Z,3.10
2018-06-27T12:46:40.291Z,3.20
2018-06-27T12:47:40.280Z,3.10
2018-06-27T12:48:40.272Z,3.30
2018-06-27T12:49:40.271Z,3.10
2018-06-27T12:50:40.256Z,3.20
2018-06-27T12:51:40.249Z,3.40
2018-06-27T12:52:40.244Z,3.10
2018-06-27T12:53:40.239Z,3.10
2018-06-27T12:54:40.223Z,3.20
2018-06-27T12:55:40.217Z,3.50
2018-06-27T12:56:40.221Z,3.40
2018-06-27T12:57:40.300Z,3.40
2018-06-27T12:58:40.191Z,3.10
2018-06-27T12:59:40.203Z,3.20